createdAt,value
2022-10-03T00:00:59.709Z,19.60
2022-10-03T00:03:26.106Z,19.60
2022-10-03T00:05:52.504Z,19.60
2022-10-03T00:08:18.925Z,19.60
2022-10-03T00:10:45.325Z,19.70
2022-10-03T00:13:11.739Z,19.70
2022-10-03T00:15:38.170Z,19.70
2022-10-03T00:18:04.635Z,19.70
2022-10-03T00:20:31.051Z,19.70
2022-10-03T00:22:57.468Z,19.70
2022-10-03T00:25:23.878Z,19.70
2022-10-03T00:27:50.325Z,19.70
2022-10-03T00:30:16.759Z,19.70
2022-10-03T00:32:43.164Z,19.70
2022-10-03T00:35:09.625Z,19.70
2022-10-03T00:37:36.066Z,19.70
2022-10-03T00:40:02.489Z,19.70
2022-10-03T00:42:28.944Z,19.70
2022-10-03T00:44:55.345Z,19.70
2022-10-03T00:47:21.767Z,19.70
2022-10-03T00:49:48.226Z,19.70
2022-10-03T00:52:14.633Z,19.70
2022-10-03T00:54:41.021Z,19.70
2022-10-03T00:57:07.442Z,19.70
2022-10-03T00:59:33.844Z,19.70
2022-10-03T01:02:00.382Z,19.70
2022-10-03T01:04:26.923Z,19.70
2022-10-03T01:06:53.383Z,19.70
2022-10-03T01:09:19.791Z,19.70
2022-10-03T01:11:46.216Z,19.70
2022-10-03T01:14:12.615Z,19.70
2022-10-03T01:16:39.020Z,19.80
2022-10-03T01:19:05.437Z,19.70
2022-10-03T01:21:31.861Z,19.70
2022-10-03T01:23:58.262Z,19.70
2022-10-03T01:26:24.670Z,19.70
2022-10-03T01:28:51.060Z,19.70
2022-10-03T01:31:17.584Z,19.70
2022-10-03T01:33:44.041Z,19.80
2022-10-03T01:36:10.438Z,19.70
2022-10-03T01:38:36.833Z,19.70
2022-10-03T01:41:03.250Z,19.70
2022-10-03T01:43:29.689Z,19.70
2022-10-03T01:45:56.084Z,19.70
2022-10-03T01:48:22.502Z,19.70
2022-10-03T01:50:48.913Z,19.70
2022-10-03T01:53:15.330Z,19.70
2022-10-03T01:55:41.728Z,19.70
2022-10-03T01:58:08.133Z,19.70
2022-10-03T02:00:34.569Z,19.70
2022-10-03T02:03:01.001Z,19.70
2022-10-03T02:05:27.416Z,19.70
2022-10-03T02:07:53.851Z,19.70
2022-10-03T02:10:20.254Z,19.70
2022-10-03T02:12:46.677Z,19.70
2022-10-03T02:15:13.080Z,19.70
2022-10-03T02:17:39.498Z,19.80
2022-10-03T02:20:05.903Z,19.70
2022-10-03T02:22:32.319Z,19.70
2022-10-03T02:24:58.718Z,19.70
2022-10-03T02:27:25.137Z,19.70
2022-10-03T02:29:51.551Z,19.70
2022-10-03T02:32:17.946Z,19.70
2022-10-03T02:34:44.345Z,19.70
2022-10-03T02:37:10.737Z,19.70
2022-10-03T02:39:37.140Z,19.70
2022-10-03T02:42:03.552Z,19.70
2022-10-03T02:44:29.967Z,19.70
2022-10-03T02:46:56.365Z,19.70
2022-10-03T02:49:22.761Z,19.70
2022-10-03T02:51:49.153Z,19.70
2022-10-03T02:54:15.536Z,19.60
2022-10-03T02:56:41.930Z,19.70
2022-10-03T02:59:08.338Z,19.70
2022-10-03T03:01:34.739Z,19.60
2022-10-03T03:04:01.153Z,19.60
2022-10-03T03:06:27.545Z,19.60
2022-10-03T03:08:53.955Z,19.80
2022-10-03T03:11:20.357Z,19.70
2022-10-03T03:13:46.772Z,19.70
2022-10-03T03:16:13.191Z,19.70
2022-10-03T03:18:39.624Z,19.70
2022-10-03T03:21:06.043Z,19.70
2022-10-03T03:23:32.451Z,19.70
2022-10-03T03:25:58.853Z,19.70
2022-10-03T03:28:25.317Z,19.70
2022-10-03T03:30:51.765Z,19.70
2022-10-03T03:33:18.165Z,19.70
2022-10-03T03:35:44.578Z,19.70
2022-10-03T03:38:10.971Z,19.70
2022-10-03T03:40:37.369Z,19.70
2022-10-03T03:43:03.761Z,19.70
2022-10-03T03:45:30.209Z,19.70
2022-10-03T03:47:56.642Z,19.70
2022-10-03T03:50:23.101Z,19.70
2022-10-03T03:52:49.489Z,19.70
2022-10-03T03:55:15.911Z,19.70
2022-10-03T03:57:42.324Z,19.70
2022-10-03T04:00:08.730Z,19.70
2022-10-03T04:02:35.200Z,19.70
2022-10-03T04:05:01.706Z,19.70
2022-10-03T04:07:28.160Z,19.70
2022-10-03T04:09:54.563Z,19.70
2022-10-03T04:12:20.969Z,19.60
2022-10-03T04:14:47.374Z,19.70
2022-10-03T04:17:13.790Z,19.70
2022-10-03T04:19:40.190Z,19.70
2022-10-03T04:22:06.612Z,19.60
2022-10-03T04:24:33.026Z,19.70
2022-10-03T04:26:59.433Z,19.70
2022-10-03T04:29:25.846Z,19.70
2022-10-03T04:31:53.212Z,19.70
2022-10-03T04:34:19.634Z,19.70
2022-10-03T04:36:46.041Z,19.60
2022-10-03T04:39:12.439Z,19.70
2022-10-03T04:41:42.737Z,19.70
2022-10-03T04:44:09.544Z,19.70
2022-10-03T04:46:35.972Z,19.70
2022-10-03T04:49:02.410Z,19.70
2022-10-03T04:51:28.808Z,19.60
2022-10-03T04:53:55.206Z,19.70
2022-10-03T04:56:21.607Z,19.70
2022-10-03T04:58:48.013Z,19.70
2022-10-03T05:01:14.469Z,19.60
2022-10-03T05:03:41.104Z,19.70
2022-10-03T05:06:07.524Z,19.70
2022-10-03T05:08:33.925Z,19.70
2022-10-03T05:11:00.357Z,19.70
2022-10-03T05:13:26.750Z,19.70
2022-10-03T05:15:53.157Z,19.70
2022-10-03T05:18:23.362Z,19.70
2022-10-03T05:20:52.525Z,19.80
2022-10-03T05:23:18.925Z,19.70
2022-10-03T05:25:45.313Z,19.70
2022-10-03T05:28:11.741Z,19.70
2022-10-03T05:30:38.172Z,19.70
2022-10-03T05:33:08.513Z,19.70
2022-10-03T05:35:35.384Z,19.80
2022-10-03T05:38:01.791Z,19.70
2022-10-03T05:40:28.172Z,19.70
2022-10-03T05:42:54.581Z,19.70
2022-10-03T05:45:20.974Z,19.70
2022-10-03T05:47:47.389Z,19.70
2022-10-03T05:50:18.082Z,19.70
2022-10-03T05:52:44.779Z,19.70
2022-10-03T05:55:11.182Z,19.70
2022-10-03T05:57:37.600Z,19.70
2022-10-03T06:00:04.003Z,19.70
2022-10-03T06:02:30.502Z,19.70
2022-10-03T06:04:56.965Z,19.70
2022-10-03T06:07:23.407Z,19.70
2022-10-03T06:09:49.810Z,19.70
2022-10-03T06:12:16.204Z,19.70
2022-10-03T06:14:42.613Z,19.70
2022-10-03T06:17:09.038Z,19.70
2022-10-03T06:19:35.458Z,19.70
2022-10-03T06:22:01.894Z,19.70
2022-10-03T06:24:28.305Z,19.70
2022-10-03T06:26:54.698Z,19.70
2022-10-03T06:29:21.108Z,19.70
2022-10-03T06:31:47.501Z,19.80
2022-10-03T06:34:13.901Z,19.70
2022-10-03T06:36:40.312Z,19.70
2022-10-03T06:39:06.702Z,19.70
2022-10-03T06:41:33.093Z,19.80
2022-10-03T06:43:59.512Z,19.70
2022-10-03T06:46:26.101Z,19.70
2022-10-03T06:48:52.577Z,19.70
2022-10-03T06:51:18.985Z,19.60
2022-10-03T06:53:45.392Z,19.70
2022-10-03T06:56:11.789Z,19.70
2022-10-03T06:58:38.222Z,19.70
2022-10-03T07:01:04.657Z,19.70
2022-10-03T07:03:31.148Z,19.70
2022-10-03T07:05:57.568Z,19.70
2022-10-03T07:08:23.972Z,19.70
2022-10-03T07:10:50.414Z,19.70
2022-10-03T07:13:16.814Z,19.70
2022-10-03T07:16:08.822Z,19.70
2022-10-03T07:18:29.596Z,19.70
2022-10-03T07:20:56.005Z,19.70
2022-10-03T07:23:22.416Z,19.70
2022-10-03T07:25:48.809Z,19.60
2022-10-03T07:28:15.280Z,19.70
2022-10-03T07:30:41.762Z,19.70
2022-10-03T07:33:08.174Z,19.70
2022-10-03T07:35:34.570Z,19.70
2022-10-03T07:38:00.969Z,19.70
2022-10-03T07:40:27.375Z,19.70
2022-10-03T07:42:53.777Z,19.70
2022-10-03T07:45:20.197Z,19.70
2022-10-03T07:47:46.585Z,19.70
2022-10-03T07:50:12.981Z,19.70
2022-10-03T07:52:39.390Z,19.70
2022-10-03T07:55:05.791Z,19.70
2022-10-03T07:57:32.219Z,19.70
2022-10-03T07:59:58.633Z,19.70
2022-10-03T08:02:25.083Z,19.70
2022-10-03T08:04:51.522Z,19.70
2022-10-03T08:07:17.917Z,19.70
2022-10-03T08:09:44.313Z,19.70
2022-10-03T08:12:10.724Z,19.70
2022-10-03T08:14:37.129Z,19.70
2022-10-03T08:17:03.521Z,19.70
2022-10-03T08:19:29.942Z,19.70
2022-10-03T08:21:56.357Z,19.80
2022-10-03T08:24:22.770Z,19.70
2022-10-03T08:26:49.169Z,19.70
2022-10-03T08:29:15.573Z,19.70
2022-10-03T08:31:42.590Z,19.70
2022-10-03T08:36:36.249Z,19.70
2022-10-03T08:39:02.640Z,19.70
2022-10-03T08:41:29.063Z,19.70
2022-10-03T08:43:55.470Z,19.70
2022-10-03T08:46:21.953Z,19.70
2022-10-03T08:48:48.447Z,19.70
2022-10-03T08:51:14.852Z,19.70
2022-10-03T08:53:41.251Z,19.70
2022-10-03T08:56:07.666Z,19.70
2022-10-03T08:58:34.069Z,19.70
2022-10-03T09:01:00.469Z,19.70
2022-10-03T09:03:38.096Z,19.70
2022-10-03T09:06:08.425Z,19.60
2022-10-03T09:08:34.873Z,19.70
2022-10-03T09:11:01.270Z,19.70
2022-10-03T09:13:27.677Z,19.70
2022-10-03T09:15:54.151Z,19.70
2022-10-03T09:18:20.603Z,19.70
2022-10-03T09:20:47.029Z,19.70
2022-10-03T09:23:13.435Z,19.70
2022-10-03T09:25:39.837Z,19.70
2022-10-03T09:28:06.277Z,19.80
2022-10-03T09:30:32.686Z,19.70
2022-10-03T09:32:59.090Z,19.70
2022-10-03T09:35:25.486Z,19.80
2022-10-03T09:37:51.907Z,19.70
2022-10-03T09:40:18.359Z,19.70
2022-10-03T09:42:44.765Z,19.80
2022-10-03T09:45:11.181Z,19.70
2022-10-03T09:47:37.602Z,19.70
2022-10-03T09:50:03.995Z,19.70
2022-10-03T09:52:30.387Z,19.70
2022-10-03T09:54:56.792Z,19.80
2022-10-03T09:57:23.254Z,19.80
2022-10-03T09:59:49.749Z,19.80
2022-10-03T10:02:16.145Z,19.80
2022-10-03T10:04:57.854Z,19.80
2022-10-03T10:07:24.332Z,19.80
2022-10-03T10:09:50.742Z,19.90
2022-10-03T10:12:17.195Z,19.90
2022-10-03T10:14:43.613Z,19.90
2022-10-03T10:17:10.006Z,20.00
2022-10-03T10:19:36.447Z,19.90
2022-10-03T10:22:02.850Z,19.90
2022-10-03T10:24:29.241Z,19.90
2022-10-03T10:26:55.659Z,19.90
2022-10-03T10:29:22.070Z,19.90
2022-10-03T10:31:48.556Z,20.00
2022-10-03T10:34:15.015Z,20.00
2022-10-03T10:36:41.946Z,20.10
2022-10-03T10:39:08.707Z,20.10
2022-10-03T10:41:35.114Z,20.10
2022-10-03T10:44:01.523Z,20.20
2022-10-03T10:46:30.339Z,20.20
2022-10-03T10:49:00.216Z,20.20
2022-10-03T10:51:29.989Z,20.20
2022-10-03T10:53:56.372Z,20.20
2022-10-03T10:56:22.793Z,20.20
2022-10-03T10:58:49.192Z,20.20
2022-10-03T11:01:15.669Z,20.20
2022-10-03T11:03:42.156Z,20.20
2022-10-03T11:06:08.581Z,20.20
2022-10-03T11:08:34.990Z,20.20
2022-10-03T11:11:01.406Z,20.20
2022-10-03T11:13:30.088Z,20.20
2022-10-03T11:15:59.966Z,20.30
2022-10-03T11:18:26.428Z,20.20
2022-10-03T11:20:52.826Z,20.20
2022-10-03T11:23:19.231Z,20.30
2022-10-03T11:25:45.631Z,20.20
2022-10-03T11:28:13.821Z,20.20
2022-10-03T11:30:42.033Z,20.20
2022-10-03T11:33:08.452Z,20.20
2022-10-03T11:35:36.734Z,20.10
2022-10-03T11:38:04.969Z,20.10
2022-10-03T11:40:31.362Z,20.10
2022-10-03T11:42:57.754Z,20.00
2022-10-03T11:45:24.149Z,20.10
2022-10-03T11:47:50.565Z,20.10
2022-10-03T11:50:16.974Z,20.10
2022-10-03T11:52:43.367Z,20.00
2022-10-03T11:55:09.765Z,20.10
2022-10-03T11:57:36.173Z,20.00
2022-10-03T12:00:02.608Z,20.00
2022-10-03T12:02:29.055Z,20.00
2022-10-03T12:04:55.524Z,20.00
2022-10-03T12:07:21.933Z,20.00
2022-10-03T12:09:48.394Z,20.00
2022-10-03T12:12:14.794Z,20.00
2022-10-03T12:14:41.208Z,20.00
2022-10-03T12:17:07.624Z,20.00
2022-10-03T12:19:34.038Z,20.00
2022-10-03T12:22:00.445Z,20.00
2022-10-03T12:24:26.848Z,20.00
2022-10-03T12:26:53.253Z,20.00
2022-10-03T12:29:19.651Z,20.00
2022-10-03T12:31:46.098Z,20.00
2022-10-03T12:34:12.503Z,20.00
2022-10-03T12:36:38.906Z,19.90
2022-10-03T12:39:05.305Z,20.00
2022-10-03T12:41:31.729Z,20.00
2022-10-03T12:43:58.162Z,20.00
2022-10-03T12:46:24.640Z,20.00
2022-10-03T12:48:51.089Z,20.00
2022-10-03T12:51:17.494Z,20.00
2022-10-03T12:53:43.924Z,20.00
2022-10-03T12:56:10.326Z,20.00
2022-10-03T12:58:36.738Z,20.00
2022-10-03T13:01:03.183Z,20.10
2022-10-03T13:03:29.610Z,20.10
2022-10-03T13:05:56.008Z,20.20
2022-10-03T13:08:22.417Z,20.20
2022-10-03T13:10:48.819Z,20.20
2022-10-03T13:13:15.231Z,20.20
2022-10-03T13:15:41.711Z,20.20
2022-10-03T13:18:08.149Z,20.30
2022-10-03T13:20:34.566Z,20.30
2022-10-03T13:23:00.964Z,20.30
2022-10-03T13:25:27.405Z,20.30
2022-10-03T13:27:53.826Z,20.30
2022-10-03T13:30:20.245Z,20.30
2022-10-03T13:32:46.645Z,20.30
2022-10-03T13:35:13.038Z,20.20
2022-10-03T13:37:39.465Z,20.30
2022-10-03T13:40:05.869Z,20.30
2022-10-03T13:42:32.290Z,20.30
2022-10-03T13:44:58.694Z,20.30
2022-10-03T13:47:25.106Z,20.30
2022-10-03T13:49:51.507Z,20.40
2022-10-03T13:52:17.933Z,20.30
2022-10-03T13:54:44.357Z,20.40
2022-10-03T13:57:10.773Z,20.40
2022-10-03T13:59:37.161Z,20.40
2022-10-03T14:02:03.638Z,20.40
2022-10-03T14:04:30.126Z,20.40
2022-10-03T14:06:56.541Z,20.40
2022-10-03T14:09:22.964Z,20.40
2022-10-03T14:11:49.378Z,20.40
2022-10-03T14:14:15.773Z,20.40
2022-10-03T14:16:42.170Z,20.40
2022-10-03T14:19:08.564Z,20.50
2022-10-03T14:21:34.991Z,20.40
2022-10-03T14:24:01.401Z,20.50
2022-10-03T14:26:27.806Z,20.50
2022-10-03T14:28:54.227Z,20.60
2022-10-03T14:31:20.681Z,20.60
2022-10-03T14:33:47.129Z,20.70
2022-10-03T14:36:13.543Z,20.60
2022-10-03T14:38:39.980Z,20.60
2022-10-03T14:41:06.389Z,20.60
2022-10-03T14:43:32.884Z,20.60
2022-10-03T14:45:59.368Z,20.60
2022-10-03T14:48:25.781Z,20.60
2022-10-03T14:50:52.190Z,20.60
2022-10-03T14:53:18.586Z,20.50
2022-10-03T14:55:44.983Z,20.60
2022-10-03T14:58:12.079Z,20.60
2022-10-03T15:00:38.582Z,20.50
2022-10-03T15:03:05.109Z,20.50
2022-10-03T15:05:31.529Z,20.40
2022-10-03T15:07:58.733Z,20.50
2022-10-03T15:10:26.072Z,20.40
2022-10-03T15:12:52.482Z,20.40
2022-10-03T15:15:18.881Z,20.40
2022-10-03T15:17:45.314Z,20.40
2022-10-03T15:20:11.716Z,20.30
2022-10-03T15:22:38.125Z,20.30
2022-10-03T15:25:04.537Z,20.30
2022-10-03T15:27:30.935Z,20.30
2022-10-03T15:29:57.355Z,20.30
2022-10-03T15:32:23.747Z,20.30
2022-10-03T15:34:50.185Z,20.20
2022-10-03T15:37:16.578Z,20.30
2022-10-03T15:39:42.995Z,20.20
2022-10-03T15:42:09.400Z,20.30
2022-10-03T15:44:35.799Z,20.20
2022-10-03T15:47:02.204Z,20.20
2022-10-03T15:49:28.611Z,20.20
2022-10-03T15:51:55.021Z,20.20
2022-10-03T15:54:21.433Z,20.20
2022-10-03T15:56:47.833Z,20.20
2022-10-03T15:59:14.235Z,20.20
2022-10-03T16:01:40.953Z,20.20
2022-10-03T16:04:07.681Z,20.20
2022-10-03T16:06:36.022Z,20.10
2022-10-03T16:09:02.570Z,20.10
2022-10-03T16:11:28.969Z,20.10
2022-10-03T16:13:55.378Z,20.10
2022-10-03T16:16:21.844Z,20.00
2022-10-03T16:18:48.375Z,20.10
2022-10-03T16:21:14.776Z,20.10
2022-10-03T16:23:41.173Z,20.10
2022-10-03T16:26:07.601Z,20.10
2022-10-03T16:28:34.410Z,20.00
2022-10-03T16:31:01.114Z,20.00
2022-10-03T16:33:27.535Z,20.00
2022-10-03T16:35:53.933Z,20.00
2022-10-03T16:38:20.343Z,20.00
2022-10-03T16:40:46.769Z,20.00
2022-10-03T16:43:13.180Z,20.00
2022-10-03T16:45:39.639Z,19.90
2022-10-03T16:48:06.103Z,19.90
2022-10-03T16:50:36.828Z,19.90
2022-10-03T16:53:05.143Z,19.90
2022-10-03T16:55:31.567Z,19.90
2022-10-03T16:57:57.993Z,19.90
2022-10-03T17:00:24.417Z,19.90
2022-10-03T17:02:50.890Z,19.80
2022-10-03T17:05:17.350Z,19.90
2022-10-03T17:07:43.830Z,19.90
2022-10-03T17:10:10.233Z,19.90
2022-10-03T17:12:36.627Z,19.90
2022-10-03T17:15:03.026Z,19.90
2022-10-03T17:17:29.431Z,19.90
2022-10-03T17:19:55.828Z,19.80
2022-10-03T17:22:22.233Z,19.80
2022-10-03T17:24:48.657Z,19.80
2022-10-03T17:27:15.080Z,19.80
2022-10-03T17:29:41.497Z,19.80
2022-10-03T17:32:08.026Z,19.80
2022-10-03T17:34:34.477Z,19.80
2022-10-03T17:37:00.876Z,19.80
2022-10-03T17:39:27.292Z,19.80
2022-10-03T17:41:53.683Z,19.80
2022-10-03T17:44:20.091Z,19.80
2022-10-03T17:46:46.493Z,19.80
2022-10-03T17:49:12.919Z,19.80
2022-10-03T17:51:39.562Z,19.70
2022-10-03T17:54:06.260Z,19.80
2022-10-03T17:56:32.686Z,19.70
2022-10-03T17:58:59.080Z,19.70
2022-10-03T18:01:25.536Z,19.70
2022-10-03T18:03:52.000Z,19.70
2022-10-03T18:06:18.393Z,19.70
2022-10-03T18:08:44.782Z,19.80
2022-10-03T18:11:11.207Z,19.70
2022-10-03T18:13:37.602Z,19.70
2022-10-03T18:16:04.043Z,19.70
2022-10-03T18:18:30.472Z,19.80
2022-10-03T18:20:56.907Z,19.80
2022-10-03T18:23:43.126Z,19.80
2022-10-03T18:26:19.504Z,19.80
2022-10-03T18:28:46.631Z,19.90
2022-10-03T18:31:13.132Z,19.80
2022-10-03T18:33:39.597Z,19.90
2022-10-03T18:36:05.993Z,19.90
2022-10-03T18:38:32.386Z,19.80
2022-10-03T18:40:58.769Z,19.90
2022-10-03T18:43:25.194Z,19.80
2022-10-03T18:45:51.623Z,19.90
2022-10-03T18:48:18.049Z,19.80
2022-10-03T18:50:44.465Z,19.90
2022-10-03T18:53:10.878Z,19.90
2022-10-03T18:55:37.309Z,19.90
2022-10-03T18:58:03.715Z,19.90
2022-10-03T19:00:30.227Z,19.90
2022-10-03T19:02:56.686Z,19.90
2022-10-03T19:05:23.100Z,19.90
2022-10-03T19:07:49.509Z,19.90
2022-10-03T19:10:15.915Z,19.90
2022-10-03T19:12:42.317Z,19.90
2022-10-03T19:15:08.717Z,19.90
2022-10-03T19:17:35.121Z,19.90
2022-10-03T19:20:01.522Z,19.80
2022-10-03T19:22:27.950Z,19.80
2022-10-03T19:24:58.846Z,19.80
2022-10-03T19:27:25.725Z,19.80
2022-10-03T19:29:52.146Z,19.80
2022-10-03T19:32:18.559Z,19.80
2022-10-03T19:34:44.956Z,19.80
2022-10-03T19:37:11.364Z,19.80
2022-10-03T19:39:37.781Z,19.80
2022-10-03T19:42:04.181Z,19.80
2022-10-03T19:44:30.573Z,19.80
2022-10-03T19:46:56.988Z,19.80
2022-10-03T19:49:23.392Z,19.90
2022-10-03T19:51:49.782Z,19.80
2022-10-03T19:54:16.182Z,19.80
2022-10-03T19:56:42.583Z,19.80
2022-10-03T19:59:08.974Z,19.80
2022-10-03T20:01:35.416Z,19.80
2022-10-03T20:04:01.858Z,19.70
2022-10-03T20:06:28.276Z,19.80
2022-10-03T20:08:54.674Z,19.80
2022-10-03T20:11:21.096Z,19.70
2022-10-03T20:13:47.489Z,19.70
2022-10-03T20:16:13.911Z,19.70
2022-10-03T20:18:40.369Z,19.70
2022-10-03T20:21:06.758Z,19.70
2022-10-03T20:23:33.159Z,19.70
2022-10-03T20:25:59.565Z,19.70
2022-10-03T20:28:26.062Z,19.70
2022-10-03T20:30:52.493Z,19.70
2022-10-03T20:33:18.971Z,19.70
2022-10-03T20:35:45.370Z,19.70
2022-10-03T20:38:11.778Z,19.70
2022-10-03T20:40:38.241Z,19.80
2022-10-03T20:43:04.659Z,19.70
2022-10-03T20:45:31.113Z,19.70
2022-10-03T20:47:57.594Z,19.70
2022-10-03T20:50:23.998Z,19.70
2022-10-03T20:52:50.398Z,19.70
2022-10-03T20:55:16.793Z,19.70
2022-10-03T20:57:43.208Z,19.70
2022-10-03T21:00:09.619Z,19.70
2022-10-03T21:02:36.132Z,19.80
2022-10-03T21:05:02.640Z,19.70
2022-10-03T21:07:29.053Z,19.80
2022-10-03T21:09:55.464Z,19.70
2022-10-03T21:12:21.863Z,19.80
2022-10-03T21:14:48.270Z,19.70
2022-10-03T21:17:14.679Z,19.80
2022-10-03T21:19:41.082Z,19.70
2022-10-03T21:22:07.629Z,19.60
2022-10-03T21:24:34.039Z,19.70
2022-10-03T21:27:00.461Z,19.70
2022-10-03T21:29:26.865Z,19.70
2022-10-03T21:31:53.368Z,19.70
2022-10-03T21:34:19.821Z,19.70
2022-10-03T21:36:46.233Z,19.70
2022-10-03T21:39:12.640Z,19.70
2022-10-03T21:41:39.242Z,19.70
2022-10-03T21:44:05.783Z,19.70
2022-10-03T21:46:32.219Z,19.70
2022-10-03T21:48:58.615Z,19.60
2022-10-03T21:51:25.029Z,19.70
2022-10-03T21:53:51.511Z,19.70
2022-10-03T21:56:17.900Z,19.70
2022-10-03T21:58:44.318Z,19.70
2022-10-03T22:01:10.806Z,19.70
2022-10-03T22:03:37.493Z,19.70
2022-10-03T22:06:03.895Z,19.70
2022-10-03T22:08:30.355Z,19.70
2022-10-03T22:10:56.801Z,19.70
2022-10-03T22:13:23.189Z,19.70
2022-10-03T22:15:49.672Z,19.70
2022-10-03T22:18:16.110Z,19.70
2022-10-03T22:20:42.526Z,19.70
2022-10-03T22:23:08.917Z,19.70
2022-10-03T22:25:35.323Z,19.70
2022-10-03T22:28:01.783Z,19.70
2022-10-03T22:30:28.219Z,19.70
2022-10-03T22:32:54.649Z,19.70
2022-10-03T22:35:21.051Z,19.80
2022-10-03T22:37:47.477Z,19.70
2022-10-03T22:40:13.868Z,19.70
2022-10-03T22:42:40.320Z,19.70
2022-10-03T22:45:06.721Z,19.70
2022-10-03T22:47:33.139Z,19.70
2022-10-03T22:49:59.539Z,19.70
2022-10-03T22:52:25.934Z,19.70
2022-10-03T22:54:52.343Z,19.70
2022-10-03T22:57:18.741Z,19.80
2022-10-03T22:59:45.157Z,19.70
2022-10-03T23:02:11.562Z,19.60
2022-10-03T23:04:38.004Z,19.60
2022-10-03T23:07:04.397Z,19.70
2022-10-03T23:09:31.965Z,19.60
2022-10-03T23:11:58.360Z,19.60
2022-10-03T23:14:24.764Z,19.60
2022-10-03T23:16:51.157Z,19.60
2022-10-03T23:19:17.554Z,19.60
2022-10-03T23:21:43.970Z,19.60
2022-10-03T23:24:10.360Z,19.60
2022-10-03T23:26:36.819Z,19.70
2022-10-03T23:29:03.268Z,19.60
2022-10-03T23:31:29.720Z,19.70
2022-10-03T23:33:56.125Z,19.70
2022-10-03T23:36:22.518Z,19.70
2022-10-03T23:38:48.913Z,19.70
2022-10-03T23:41:15.304Z,19.70
2022-10-03T23:43:41.706Z,19.60
2022-10-03T23:46:08.158Z,19.70
2022-10-03T23:48:34.569Z,19.70
2022-10-03T23:51:01.009Z,19.70
2022-10-03T23:53:27.421Z,19.70
2022-10-03T23:55:53.818Z,19.70
2022-10-03T23:58:20.243Z,19.70
